createdAt,value
2022-12-24T00:00:25.903Z,13.60
2022-12-24T00:03:51.187Z,13.60
2022-12-24T00:07:14.809Z,13.60
2022-12-24T00:10:38.328Z,13.60
2022-12-24T00:14:02.029Z,13.60
2022-12-24T00:17:25.487Z,13.60
2022-12-24T00:20:51.629Z,13.60
2022-12-24T00:24:15.066Z,13.60
2022-12-24T00:27:38.544Z,13.60
2022-12-24T00:31:08.590Z,13.60
2022-12-24T00:34:32.090Z,13.70
2022-12-24T00:37:56.997Z,13.60
2022-12-24T00:41:28.954Z,13.60
2022-12-24T00:44:52.690Z,13.60
2022-12-24T00:48:16.205Z,13.60
2022-12-24T00:51:40.258Z,13.70
2022-12-24T00:55:06.068Z,13.60
2022-12-24T00:58:29.503Z,13.60
2022-12-24T01:01:53.131Z,13.70
2022-12-24T01:05:20.584Z,13.70
2022-12-24T01:08:44.462Z,13.70
2022-12-24T01:12:09.325Z,13.70
2022-12-24T01:15:32.806Z,13.70
2022-12-24T01:18:56.307Z,13.70
2022-12-24T01:22:19.830Z,13.70
2022-12-24T01:25:43.335Z,13.80
2022-12-24T01:29:08.143Z,13.80
2022-12-24T01:32:31.579Z,13.80
2022-12-24T01:35:55.042Z,13.90
2022-12-24T01:39:18.505Z,14.10
2022-12-24T01:43:06.434Z,13.90
2022-12-24T01:46:33.928Z,13.90
2022-12-24T01:50:02.821Z,13.90
2022-12-24T01:53:26.933Z,13.90
2022-12-24T01:56:55.394Z,13.80
2022-12-24T02:00:19.715Z,13.70
2022-12-24T02:03:45.125Z,13.50
2022-12-24T02:07:08.921Z,13.40
2022-12-24T02:10:32.449Z,13.30
2022-12-24T02:14:01.365Z,13.20
2022-12-24T02:17:35.863Z,13.10
2022-12-24T02:21:41.035Z,13.00
2022-12-24T02:25:33.846Z,12.90
2022-12-24T02:29:28.087Z,12.90
2022-12-24T02:33:27.147Z,12.80
2022-12-24T02:36:59.180Z,12.70
2022-12-24T02:40:29.441Z,12.70
2022-12-24T02:43:55.960Z,12.60
2022-12-24T02:47:24.223Z,12.60
2022-12-24T02:51:03.638Z,12.60
2022-12-24T02:54:27.477Z,12.60
2022-12-24T02:58:24.149Z,12.60
2022-12-24T03:02:00.659Z,12.60
2022-12-24T03:05:38.678Z,12.60
2022-12-24T03:09:19.524Z,12.60
2022-12-24T03:12:47.990Z,12.50
2022-12-24T03:16:17.523Z,12.50
2022-12-24T03:19:42.456Z,12.50
2022-12-24T03:23:06.529Z,12.50
2022-12-24T03:26:33.830Z,12.50
2022-12-24T03:29:58.427Z,12.50
2022-12-24T03:33:22.381Z,12.50
2022-12-24T03:36:48.387Z,12.50
2022-12-24T03:40:12.819Z,12.50
2022-12-24T03:43:37.557Z,12.50
2022-12-24T03:47:00.953Z,12.40
2022-12-24T03:50:24.310Z,12.50
2022-12-24T03:53:47.831Z,12.40
2022-12-24T03:57:11.206Z,12.50
2022-12-24T04:00:35.964Z,12.50
2022-12-24T04:03:59.478Z,12.50
2022-12-24T04:07:22.879Z,12.50
2022-12-24T04:10:46.262Z,12.50
2022-12-24T04:14:09.697Z,12.50
2022-12-24T04:17:34.599Z,12.50
2022-12-24T04:20:59.047Z,12.50
2022-12-24T04:24:22.406Z,12.50
2022-12-24T04:27:45.769Z,12.50
2022-12-24T04:31:12.938Z,12.50
2022-12-24T04:34:37.723Z,12.50
2022-12-24T04:38:01.495Z,12.50
2022-12-24T04:41:25.976Z,12.50
2022-12-24T04:44:49.322Z,12.50
2022-12-24T04:48:12.654Z,12.50
2022-12-24T04:51:37.623Z,12.50
2022-12-24T04:55:01.088Z,12.50
2022-12-24T04:58:25.335Z,12.50
2022-12-24T05:01:48.862Z,12.40
2022-12-24T05:05:12.374Z,12.70
2022-12-24T05:08:37.410Z,12.40
2022-12-24T05:12:01.077Z,12.40
2022-12-24T05:15:25.350Z,12.40
2022-12-24T05:18:48.970Z,12.40
2022-12-24T05:22:29.151Z,12.30
2022-12-24T05:26:11.881Z,12.30
2022-12-24T05:29:35.446Z,12.20
2022-12-24T05:32:58.893Z,12.20
2022-12-24T05:36:23.132Z,12.20
2022-12-24T05:39:46.626Z,12.10
2022-12-24T05:43:11.431Z,12.10
2022-12-24T05:46:35.343Z,12.10
2022-12-24T05:49:58.847Z,12.10
2022-12-24T05:53:22.774Z,12.10
2022-12-24T05:56:46.258Z,12.00
2022-12-24T06:00:12.523Z,12.00
2022-12-24T06:03:36.909Z,12.00
2022-12-24T06:07:00.332Z,11.90
2022-12-24T06:10:24.287Z,11.90
2022-12-24T06:13:48.280Z,11.90
2022-12-24T06:17:13.064Z,11.90
2022-12-24T06:20:36.542Z,11.90
2022-12-24T06:24:00.975Z,11.80
2022-12-24T06:27:24.741Z,11.80
2022-12-24T06:30:50.180Z,11.80
2022-12-24T06:34:15.111Z,11.80
2022-12-24T06:37:38.595Z,11.70
2022-12-24T06:41:06.712Z,11.80
2022-12-24T06:44:30.147Z,11.70
2022-12-24T06:47:53.607Z,11.70
2022-12-24T06:51:20.470Z,11.60
2022-12-24T06:54:43.927Z,11.60
2022-12-24T06:58:07.404Z,11.60
2022-12-24T07:01:30.998Z,11.60
2022-12-24T07:04:54.738Z,11.60
2022-12-24T07:08:19.529Z,11.60
2022-12-24T07:11:43.069Z,11.60
2022-12-24T07:15:07.855Z,11.60
2022-12-24T07:18:32.455Z,11.60
2022-12-24T07:21:55.929Z,11.70
2022-12-24T07:25:21.137Z,11.70
2022-12-24T07:28:44.722Z,11.70
2022-12-24T07:32:09.207Z,11.70
2022-12-24T07:35:32.825Z,11.70
2022-12-24T07:38:56.881Z,11.70
2022-12-24T07:42:21.912Z,11.70
2022-12-24T07:45:46.343Z,11.80
2022-12-24T07:49:10.399Z,11.80
2022-12-24T07:52:34.319Z,11.80
2022-12-24T07:55:58.349Z,11.90
2022-12-24T07:59:23.544Z,11.90
2022-12-24T08:02:47.478Z,12.00
2022-12-24T08:06:12.013Z,12.00
2022-12-24T08:09:37.385Z,12.00
2022-12-24T08:13:00.841Z,12.10
2022-12-24T08:16:26.011Z,12.10
2022-12-24T08:19:49.551Z,12.10
2022-12-24T08:23:13.259Z,12.20
2022-12-24T08:26:36.820Z,12.20
2022-12-24T08:30:00.362Z,12.20
2022-12-24T08:33:25.168Z,12.30
2022-12-24T08:36:48.588Z,12.30
2022-12-24T08:40:13.717Z,12.40
2022-12-24T08:43:37.222Z,12.40
2022-12-24T08:47:01.540Z,12.40
2022-12-24T08:50:26.376Z,12.50
2022-12-24T08:53:49.917Z,12.50
2022-12-24T08:57:14.588Z,12.60
2022-12-24T09:00:39.125Z,12.60
2022-12-24T09:04:03.521Z,12.80
2022-12-24T09:07:28.342Z,12.90
2022-12-24T09:10:51.839Z,12.60
2022-12-24T09:14:15.587Z,12.60
2022-12-24T09:17:39.099Z,12.60
2022-12-24T09:21:03.800Z,12.60
2022-12-24T09:24:28.676Z,12.70
2022-12-24T09:27:52.232Z,12.70
2022-12-24T09:31:17.085Z,12.80
2022-12-24T09:34:40.735Z,12.80
2022-12-24T09:38:04.153Z,12.90
2022-12-24T09:41:43.929Z,12.90
2022-12-24T09:45:19.612Z,13.00
2022-12-24T09:48:47.490Z,13.00
2022-12-24T09:52:23.267Z,13.10
2022-12-24T09:55:52.551Z,13.10
2022-12-24T09:59:23.781Z,13.00
2022-12-24T10:02:47.715Z,13.00
2022-12-24T10:06:17.171Z,13.50
2022-12-24T10:09:56.342Z,13.00
2022-12-24T10:13:41.176Z,13.00
2022-12-24T10:17:31.722Z,13.10
2022-12-24T10:21:07.366Z,13.20
2022-12-24T10:24:41.334Z,13.30
2022-12-24T10:28:17.843Z,13.40
2022-12-24T10:31:51.726Z,13.50
2022-12-24T10:35:26.276Z,13.60
2022-12-24T10:38:49.797Z,13.60
2022-12-24T10:42:16.647Z,13.70
2022-12-24T10:45:47.426Z,13.80
2022-12-24T10:49:17.299Z,13.80
2022-12-24T10:52:46.307Z,13.90
2022-12-24T10:56:14.782Z,14.00
2022-12-24T10:59:50.528Z,14.00
2022-12-24T11:03:26.072Z,14.10
2022-12-24T11:06:58.704Z,14.20
2022-12-24T11:10:25.948Z,14.20
2022-12-24T11:13:57.486Z,14.30
2022-12-24T11:17:24.058Z,14.30
2022-12-24T11:20:54.187Z,14.40
2022-12-24T11:24:28.880Z,14.30
2022-12-24T11:27:53.770Z,14.30
2022-12-24T11:31:22.185Z,14.40
2022-12-24T11:34:45.872Z,14.30
2022-12-24T11:38:19.085Z,14.30
2022-12-24T11:41:42.729Z,14.20
2022-12-24T11:45:20.657Z,14.20
2022-12-24T11:48:44.493Z,14.20
2022-12-24T11:52:24.426Z,14.20
2022-12-24T11:55:51.630Z,14.30
2022-12-24T11:59:26.160Z,14.30
2022-12-24T12:02:55.378Z,14.40
2022-12-24T12:06:30.654Z,14.60
2022-12-24T12:10:04.550Z,14.50
2022-12-24T12:13:34.006Z,14.50
2022-12-24T12:17:05.144Z,14.80
2022-12-24T12:20:35.405Z,14.50
2022-12-24T12:24:06.171Z,14.50
2022-12-24T12:27:35.123Z,14.60
2022-12-24T12:31:16.122Z,14.60
2022-12-24T12:34:48.844Z,14.60
2022-12-24T12:38:22.071Z,14.60
2022-12-24T12:41:57.794Z,14.60
2022-12-24T12:45:53.970Z,14.60
2022-12-24T12:49:39.062Z,14.50
2022-12-24T12:53:37.225Z,14.50
2022-12-24T12:57:09.012Z,14.50
2022-12-24T13:00:40.033Z,14.50
2022-12-24T13:04:59.517Z,14.50
2022-12-24T13:09:10.142Z,14.50
2022-12-24T13:12:58.820Z,14.50
2022-12-24T13:17:13.338Z,14.60
2022-12-24T13:20:47.666Z,14.60
2022-12-24T13:24:20.361Z,14.80
2022-12-24T13:27:44.295Z,14.80
2022-12-24T13:31:37.839Z,14.90
2022-12-24T13:35:05.604Z,14.90
2022-12-24T13:38:43.630Z,15.20
2022-12-24T13:42:09.170Z,15.00
2022-12-24T13:45:50.207Z,15.00
2022-12-24T13:49:20.596Z,15.00
2022-12-24T13:52:54.646Z,15.00
2022-12-24T13:56:27.828Z,14.90
2022-12-24T14:00:02.129Z,14.90
2022-12-24T14:03:43.830Z,14.80
2022-12-24T14:07:09.160Z,14.80
2022-12-24T14:10:39.647Z,14.70
2022-12-24T14:14:29.790Z,14.60
2022-12-24T14:17:54.985Z,14.60
2022-12-24T14:21:26.121Z,14.50
2022-12-24T14:24:57.961Z,14.50
2022-12-24T14:28:29.625Z,14.40
2022-12-24T14:31:54.634Z,14.40
2022-12-24T14:35:24.441Z,14.40
2022-12-24T14:38:48.748Z,14.40
2022-12-24T14:42:34.214Z,14.50
2022-12-24T14:46:11.196Z,14.30
2022-12-24T14:49:53.920Z,14.30
2022-12-24T14:53:34.382Z,14.20
2022-12-24T14:57:23.871Z,14.20
2022-12-24T15:00:48.074Z,14.20
2022-12-24T15:04:18.613Z,14.10
2022-12-24T15:07:47.976Z,14.20
2022-12-24T15:11:21.075Z,14.00
2022-12-24T15:14:46.673Z,13.90
2022-12-24T15:18:18.183Z,13.80
2022-12-24T15:21:44.328Z,13.80
2022-12-24T15:25:22.543Z,13.60
2022-12-24T15:28:47.574Z,13.60
2022-12-24T15:32:16.201Z,13.50
2022-12-24T15:35:55.560Z,13.50
2022-12-24T15:39:19.850Z,13.40
2022-12-24T15:42:45.055Z,13.30
2022-12-24T15:46:10.180Z,13.30
2022-12-24T15:49:35.606Z,13.20
2022-12-24T15:53:19.749Z,13.20
2022-12-24T15:56:48.208Z,13.20
2022-12-24T16:00:24.807Z,13.10
2022-12-24T16:04:00.451Z,13.10
2022-12-24T16:07:48.308Z,13.00
2022-12-24T16:11:19.211Z,12.90
2022-12-24T16:14:50.456Z,12.90
2022-12-24T16:18:20.873Z,12.90
2022-12-24T16:21:46.457Z,12.90
2022-12-24T16:25:25.561Z,12.90
2022-12-24T16:28:49.917Z,12.90
2022-12-24T16:32:34.455Z,12.90
2022-12-24T16:35:58.520Z,12.90
2022-12-24T16:39:28.365Z,12.90
2022-12-24T16:43:09.692Z,12.90
2022-12-24T16:46:33.782Z,12.90
2022-12-24T16:49:58.235Z,12.90
2022-12-24T16:53:23.663Z,12.90
2022-12-24T16:56:48.533Z,12.90
2022-12-24T17:00:19.949Z,13.00
2022-12-24T17:03:43.533Z,13.00
2022-12-24T17:07:08.472Z,13.00
2022-12-24T17:10:32.230Z,13.00
2022-12-24T17:13:57.417Z,13.00
2022-12-24T17:17:25.543Z,13.00
2022-12-24T17:21:00.320Z,13.00
2022-12-24T17:24:25.180Z,13.00
2022-12-24T17:27:48.595Z,13.00
2022-12-24T17:31:17.265Z,13.00
2022-12-24T17:34:41.267Z,12.90
2022-12-24T17:38:04.865Z,12.90
2022-12-24T17:41:28.711Z,12.90
2022-12-24T17:44:52.226Z,13.00
2022-12-24T17:48:17.077Z,13.00
2022-12-24T17:51:45.376Z,13.00
2022-12-24T17:55:11.006Z,13.00
2022-12-24T17:58:35.409Z,13.10
2022-12-24T18:01:58.914Z,13.10
2022-12-24T18:05:23.807Z,13.10
2022-12-24T18:08:48.704Z,13.10
2022-12-24T18:12:12.600Z,13.20
2022-12-24T18:15:39.972Z,13.20
2022-12-24T18:19:05.489Z,13.20
2022-12-24T18:22:30.404Z,13.30
2022-12-24T18:25:53.966Z,13.30
2022-12-24T18:29:18.148Z,13.30
2022-12-24T18:32:41.782Z,13.30
2022-12-24T18:36:05.996Z,13.30
2022-12-24T18:39:30.902Z,13.30
2022-12-24T18:42:54.359Z,13.30
2022-12-24T18:46:20.770Z,13.30
2022-12-24T18:49:44.384Z,13.30
2022-12-24T18:53:08.730Z,13.30
2022-12-24T18:56:33.892Z,13.30
2022-12-24T18:59:57.710Z,13.30
2022-12-24T19:03:21.195Z,13.30
2022-12-24T19:06:52.485Z,13.30
2022-12-24T19:10:16.669Z,13.30
2022-12-24T19:13:41.530Z,13.30
2022-12-24T19:17:04.967Z,13.30
2022-12-24T19:20:28.447Z,13.30
2022-12-24T19:23:51.969Z,13.30
2022-12-24T19:27:15.335Z,13.30
2022-12-24T19:30:43.284Z,13.30
2022-12-24T19:34:06.719Z,13.30
2022-12-24T19:37:31.365Z,13.30
2022-12-24T19:40:54.706Z,13.30
2022-12-24T19:44:18.051Z,13.30
2022-12-24T19:47:43.069Z,13.30
2022-12-24T19:51:09.374Z,13.30
2022-12-24T19:54:32.757Z,13.30
2022-12-24T19:57:56.128Z,13.20
2022-12-24T20:01:23.516Z,13.20
2022-12-24T20:04:48.429Z,13.20
2022-12-24T20:08:12.383Z,13.20
2022-12-24T20:11:37.108Z,13.20
2022-12-24T20:15:00.574Z,13.20
2022-12-24T20:18:24.401Z,13.10
2022-12-24T20:21:49.403Z,13.10
2022-12-24T20:25:12.939Z,13.20
2022-12-24T20:28:38.114Z,13.30
2022-12-24T20:32:01.739Z,13.10
2022-12-24T20:35:26.065Z,13.10
2022-12-24T20:38:51.942Z,14.30
2022-12-24T20:42:15.432Z,13.10
2022-12-24T20:45:39.436Z,13.10
2022-12-24T20:49:03.338Z,13.10
2022-12-24T20:52:26.984Z,13.10
2022-12-24T20:55:53.978Z,13.00
2022-12-24T20:59:17.565Z,13.00
2022-12-24T21:02:41.279Z,13.00
2022-12-24T21:06:05.234Z,12.90
2022-12-24T21:09:28.801Z,12.80
2022-12-24T21:12:57.049Z,13.00
2022-12-24T21:16:20.572Z,12.70
2022-12-24T21:19:44.101Z,12.70
2022-12-24T21:23:08.149Z,12.60
2022-12-24T21:26:33.129Z,12.50
2022-12-24T21:29:58.273Z,12.50
2022-12-24T21:33:22.181Z,12.50
2022-12-24T21:36:45.712Z,12.40
2022-12-24T21:40:12.457Z,12.40
2022-12-24T21:43:37.751Z,12.40
2022-12-24T21:47:02.847Z,12.40
2022-12-24T21:50:55.595Z,12.30
2022-12-24T21:54:27.094Z,12.90
2022-12-24T22:04:44.904Z,12.50
2022-12-24T22:08:27.848Z,12.50
2022-12-24T22:42:33.877Z,12.20
2022-12-24T22:49:22.139Z,12.20
2022-12-24T22:56:17.303Z,12.10
2022-12-24T23:06:29.861Z,12.10
2022-12-24T23:13:36.091Z,12.10
2022-12-24T23:27:11.434Z,12.00
2022-12-24T23:34:00.566Z,12.00
2022-12-24T23:40:57.024Z,12.00
2022-12-24T23:47:51.714Z,12.00
2022-12-24T23:58:06.430Z,12.00
